Conwy, United Kingdom
Current Conditions -  °F | °C
As of 9:50 PM on Monday 22 Dec 2014 (Local Time) from EGOV Reporting Station
Haze Haze  
Wind Chill: 12°   Ceiling: 3000
Heat Index: 12°   Visibility: 4mi
Dew Point: 10°   Wind: 30mph
Humidity: 88%   Direction: 210°SSW
Pressure: 29.88"   Gusts: NA
Location:  53.28°N, 3.83°W
Report Text: EGOV 222150Z AUTO 21026KT 6000 HZ OVC030/// 12/10 Q1012
Loading
Personal Weather Stations






























Interactive Weather Map New forecast layout! Learn more

10-Day Weather Forecast

Advertisements
Track Severe Weather on mobile